Time;durP1;ratioP1;P1;durP2;ratioP2;P2;SDS_P1;SDS_P2;PMS_P1;PMS_P2;Temp;Humidity;BMP_temperature;BMP_pressure;BME280_temperature;BME280_humidity;BME280_pressure;Samples;Min_cycle;Max_cycle;Signal;HPM_P1;HPM_P2
2023/04/13 00:00:28;;;;;;;3.15;2.85;;;11.20;99.90;;;;;;2085451;28;20021;-72
2023/04/13 00:01:31;;;;;;;3.53;2.92;;;11.20;99.90;;;;;;2080720;28;20844;-72
2023/04/13 00:02:32;;;;;;;4.05;3.10;;;11.20;99.90;;;;;;2083476;28;20507;-71
2023/04/13 00:03:34;;;;;;;4.22;2.90;;;11.20;99.90;;;;;;2087587;28;20456;-71
2023/04/13 00:04:35;;;;;;;3.50;2.92;;;11.20;99.90;;;;;;2083363;28;20480;-71
2023/04/13 00:05:40;;;;;;;3.63;2.90;;;11.20;99.90;;;;;;2083395;28;20025;-71
2023/04/13 00:06:41;;;;;;;3.20;2.70;;;11.10;99.90;;;;;;2082793;28;20437;-72
2023/04/13 00:07:42;;;;;;;3.70;3.00;;;11.10;99.90;;;;;;2082573;28;20143;-71
2023/04/13 00:08:43;;;;;;;2.90;2.60;;;11.10;99.90;;;;;;2085508;28;20037;-71
2023/04/13 00:09:46;;;;;;;4.63;2.75;;;11.10;99.90;;;;;;2080601;28;20086;-71
2023/04/13 00:10:47;;;;;;;3.45;2.88;;;11.10;99.90;;;;;;2082367;28;20037;-72
2023/04/13 00:11:48;;;;;;;2.88;2.67;;;11.10;99.90;;;;;;2082673;28;20037;-71
2023/04/13 00:12:49;;;;;;;4.82;2.60;;;11.10;99.90;;;;;;2084593;28;20391;-72
2023/04/13 00:13:52;;;;;;;2.70;2.50;;;11.10;99.90;;;;;;2087405;28;20776;-72
2023/04/13 00:14:52;;;;;;;2.47;2.28;;;11.00;99.90;;;;;;2088193;28;20484;-73
2023/04/13 00:15:54;;;;;;;3.15;2.63;;;11.10;99.90;;;;;;2088225;28;20016;-72
2023/04/13 00:16:55;;;;;;;2.70;2.40;;;11.00;99.90;;;;;;2085393;28;20053;-72
2023/04/13 00:17:57;;;;;;;2.90;2.30;;;11.00;99.90;;;;;;2083411;28;20840;-72
2023/04/13 00:18:57;;;;;;;2.85;2.33;;;11.00;99.90;;;;;;2083187;28;20420;-72
2023/04/13 00:19:58;;;;;;;2.85;2.40;;;11.00;99.90;;;;;;2083333;28;20060;-71
2023/04/13 00:20:59;;;;;;;3.33;2.58;;;10.90;99.90;;;;;;2083326;28;20033;-72
2023/04/13 00:22:00;;;;;;;2.95;2.20;;;11.00;99.90;;;;;;2082189;28;20452;-70
2023/04/13 00:23:00;;;;;;;2.80;2.30;;;11.00;99.90;;;;;;2082360;28;20523;-71
2023/04/13 00:24:01;;;;;;;3.40;2.47;;;10.90;99.90;;;;;;2087380;28;20071;-71
2023/04/13 00:25:02;;;;;;;2.63;2.42;;;10.90;99.90;;;;;;2083639;28;20178;-71
2023/04/13 00:26:02;;;;;;;2.50;2.30;;;11.00;99.90;;;;;;2084577;28;20029;-72
2023/04/13 00:27:03;;;;;;;2.78;2.35;;;11.00;99.90;;;;;;2082505;28;20183;-72
2023/04/13 00:28:05;;;;;;;2.42;2.22;;;11.00;99.90;;;;;;2083266;28;20025;-72
2023/04/13 00:29:06;;;;;;;2.40;2.20;;;11.00;99.90;;;;;;2082517;28;20431;-72
2023/04/13 00:30:12;;;;;;;2.75;2.38;;;10.90;99.90;;;;;;2084360;28;20144;-71
2023/04/13 00:31:12;;;;;;;3.88;2.38;;;11.00;99.90;;;;;;2080028;28;20047;-71
2023/04/13 00:32:13;;;;;;;2.55;2.30;;;10.90;99.90;;;;;;2082514;28;20028;-71
2023/04/13 00:33:14;;;;;;;2.33;2.10;;;10.90;99.90;;;;;;2082551;28;20135;-72
2023/04/13 00:34:15;;;;;;;3.83;2.10;;;10.90;99.90;;;;;;2084430;28;20032;-71
2023/04/13 00:35:17;;;;;;;3.45;2.10;;;10.90;99.90;;;;;;2082372;28;20321;-71
2023/04/13 00:36:18;;;;;;;3.00;2.25;;;10.90;99.90;;;;;;2082453;28;20033;-71
2023/04/13 00:37:20;;;;;;;2.67;2.10;;;10.90;99.90;;;;;;2083210;28;20558;-71
2023/04/13 00:38:22;;;;;;;2.60;1.98;;;10.90;99.90;;;;;;2082356;28;20028;-71
2023/04/13 00:39:29;;;;;;;2.58;2.08;;;10.90;99.90;;;;;;2076734;28;20048;-72
2023/04/13 00:40:30;;;;;;;2.55;2.08;;;10.90;99.90;;;;;;2080147;28;20437;-70
2023/04/13 00:41:31;;;;;;;2.20;1.95;;;10.90;99.90;;;;;;2083277;28;20267;-72
2023/04/13 00:42:31;;;;;;;2.42;2.10;;;10.90;99.90;;;;;;2083160;28;20054;-70
2023/04/13 00:43:32;;;;;;;2.33;1.80;;;10.90;99.90;;;;;;2081982;28;20127;-70
2023/04/13 00:44:32;;;;;;;2.88;1.98;;;10.90;99.90;;;;;;2074124;28;20524;-70
2023/04/13 00:45:38;;;;;;;2.22;2.03;;;10.90;99.90;;;;;;2076138;28;20057;-71
2023/04/13 00:46:41;;;;;;;2.22;2.03;;;10.90;99.90;;;;;;2076945;28;20026;-71
2023/04/13 00:47:45;;;;;;;2.58;2.20;;;10.90;99.90;;;;;;2082370;28;20029;-70
2023/04/13 00:48:47;;;;;;;2.50;1.95;;;10.90;99.90;;;;;;2083117;28;20033;-70
2023/04/13 00:49:48;;;;;;;2.10;1.90;;;10.90;99.90;;;;;;2083086;28;20055;-71
2023/04/13 00:50:48;;;;;;;2.35;2.00;;;10.90;99.90;;;;;;2083047;28;20548;-71
2023/04/13 00:51:49;;;;;;;3.42;1.90;;;10.90;99.90;;;;;;2083913;28;20037;-72
2023/04/13 00:52:51;;;;;;;2.08;1.80;;;10.90;99.90;;;;;;2082214;28;20037;-71
2023/04/13 00:53:52;;;;;;;2.10;1.90;;;10.90;99.90;;;;;;2082271;28;20017;-71
2023/04/13 00:54:55;;;;;;;2.83;1.90;;;10.90;99.90;;;;;;2074069;28;20113;-71
2023/04/13 00:55:57;;;;;;;3.17;2.08;;;10.90;99.90;;;;;;2086973;28;20028;-71
2023/04/13 00:56:58;;;;;;;2.22;2.00;;;10.90;99.90;;;;;;2083033;28;20025;-71
2023/04/13 00:58:00;;;;;;;2.03;1.83;;;10.90;99.90;;;;;;2085340;28;20017;-71
2023/04/13 00:59:01;;;;;;;1.92;1.83;;;10.90;99.90;;;;;;2082899;28;20032;-72
2023/04/13 01:00:08;;;;;;;2.40;1.80;;;10.90;99.90;;;;;;2088660;28;20511;-72
2023/04/13 01:01:08;;;;;;;2.25;1.90;;;10.90;99.90;;;;;;2091140;28;20035;-71
2023/04/13 01:02:09;;;;;;;2.45;1.83;;;10.90;99.90;;;;;;2082917;28;20025;-72
2023/04/13 01:03:11;;;;;;;1.98;1.88;;;10.90;99.90;;;;;;2075760;28;20496;-71
2023/04/13 01:04:12;;;;;;;2.42;2.03;;;10.90;99.90;;;;;;2073999;28;20045;-71
2023/04/13 01:05:15;;;;;;;3.35;1.90;;;10.90;99.90;;;;;;2086636;28;20364;-70
2023/04/13 01:06:20;;;;;;;2.10;1.90;;;11.00;99.90;;;;;;2082088;28;20119;-70
2023/04/13 01:07:32;;;;;;;2.58;1.73;;;11.00;99.90;;;;;;2082951;28;20024;-72
2023/04/13 01:08:38;;;;;;;2.45;1.73;;;11.00;99.90;;;;;;2087813;28;20037;-72
2023/04/13 01:09:47;;;;;;;2.78;1.90;;;10.90;99.90;;;;;;2082067;28;20033;-72
2023/04/13 01:11:10;;;;;;;3.55;1.95;;;11.00;99.90;;;;;;2079525;28;20151;-71
2023/04/13 01:12:15;;;;;;;2.83;1.75;;;11.00;99.90;;;;;;2078946;28;20024;-71
2023/04/13 01:13:21;;;;;;;3.03;1.70;;;10.90;99.90;;;;;;2074206;28;20096;-72
2023/04/13 01:14:36;;;;;;;3.03;1.90;;;11.00;99.90;;;;;;2075678;28;20037;-70
2023/04/13 01:15:45;;;;;;;2.75;1.77;;;11.00;99.90;;;;;;2079851;28;20024;-71
2023/04/13 01:16:54;;;;;;;2.22;1.90;;;10.90;99.90;;;;;;2062557;28;20045;-71
2023/04/13 01:18:03;;;;;;;2.03;1.90;;;10.90;99.90;;;;;;2073423;28;20092;-71
2023/04/13 01:19:09;;;;;;;2.13;1.92;;;10.90;99.90;;;;;;2082068;28;20063;-70
2023/04/13 01:20:13;;;;;;;2.10;1.90;;;10.90;99.90;;;;;;2082189;28;20071;-71
2023/04/13 01:21:20;;;;;;;2.33;1.90;;;10.80;99.90;;;;;;2079502;28;20035;-71
2023/04/13 01:22:24;;;;;;;2.58;1.83;;;10.80;99.90;;;;;;2079472;28;20033;-71
2023/04/13 01:23:46;;;;;;;2.10;1.90;;;10.90;99.90;;;;;;2087741;28;20504;-71
2023/04/13 01:25:00;;;;;;;2.58;2.03;;;10.80;99.90;;;;;;2085138;28;20027;-71
2023/04/13 01:26:07;;;;;;;2.65;1.92;;;10.80;99.90;;;;;;2082039;28;20036;-71
2023/04/13 01:27:20;;;;;;;2.17;1.80;;;10.80;99.90;;;;;;2074675;28;20519;-72
2023/04/13 01:28:22;;;;;;;3.13;2.10;;;10.80;99.90;;;;;;2082327;28;20035;-71
2023/04/13 01:29:25;;;;;;;1.95;1.75;;;10.80;99.90;;;;;;2082921;28;20025;-72
2023/04/13 01:30:27;;;;;;;2.03;1.83;;;10.80;99.90;;;;;;2083136;28;20037;-72
2023/04/13 01:31:31;;;;;;;2.20;2.00;;;10.80;99.90;;;;;;2082313;28;20519;-71
2023/04/13 01:32:39;;;;;;;2.20;2.00;;;10.80;99.90;;;;;;2075588;28;20310;-72
2023/04/13 01:33:40;;;;;;;2.78;1.80;;;10.70;99.90;;;;;;2084000;28;20799;-71
2023/04/13 01:34:44;;;;;;;4.03;1.80;;;10.70;99.90;;;;;;2082520;28;20036;-72
2023/04/13 01:35:45;;;;;;;2.50;1.90;;;10.70;99.90;;;;;;2082081;28;20487;-72
2023/04/13 01:36:50;;;;;;;2.80;1.95;;;10.70;99.90;;;;;;2081897;28;20032;-71
2023/04/13 01:37:51;;;;;;;2.30;2.00;;;10.70;99.90;;;;;;2074163;28;20032;-71
2023/04/13 01:38:56;;;;;;;2.55;1.80;;;10.70;99.90;;;;;;2082130;28;20029;-73
2023/04/13 01:39:56;;;;;;;2.20;2.00;;;10.70;99.90;;;;;;2075466;28;20538;-71
2023/04/13 01:41:02;;;;;;;2.72;2.17;;;10.70;99.90;;;;;;2077434;28;20026;-73
2023/04/13 01:42:05;;;;;;;2.70;2.03;;;10.70;99.90;;;;;;2070626;28;20567;-71
2023/04/13 01:43:07;;;;;;;2.00;1.80;;;10.70;99.90;;;;;;2073167;28;20029;-71
2023/04/13 01:44:21;;;;;;;2.25;2.08;;;10.70;99.90;;;;;;2081515;28;20569;-72
2023/04/13 01:45:25;;;;;;;2.90;2.10;;;10.70;99.90;;;;;;2081715;28;20028;-70
2023/04/13 01:46:27;;;;;;;4.00;2.30;;;10.70;99.90;;;;;;2082237;28;20021;-71
2023/04/13 01:48:03;;;;;;;2.22;2.03;;;10.70;99.90;;;;;;2082852;28;20381;-72
2023/04/13 01:49:25;;;;;;;2.10;2.00;;;10.70;99.90;;;;;;2082001;28;20070;-72
2023/04/13 01:51:02;;;;;;;3.25;2.10;;;10.70;99.90;;;;;;2083870;28;20024;-71
2023/04/13 01:52:14;;;;;;;2.38;2.17;;;10.60;99.90;;;;;;2078483;28;20029;-71
2023/04/13 01:53:18;;;;;;;2.55;1.90;;;10.60;99.90;;;;;;2079403;28;20039;-72
2023/04/13 01:54:24;;;;;;;2.33;1.90;;;10.60;99.90;;;;;;2079443;28;20048;-72
2023/04/13 01:55:25;;;;;;;2.15;1.95;;;10.60;99.90;;;;;;2076199;28;20025;-72
2023/04/13 01:56:30;;;;;;;3.33;2.20;;;10.50;99.90;;;;;;2075868;28;20345;-72
2023/04/13 01:57:38;;;;;;;2.28;2.05;;;10.50;99.90;;;;;;2074100;28;20212;-71
2023/04/13 01:58:42;;;;;;;2.70;2.05;;;10.50;99.90;;;;;;2076881;28;20032;-71
2023/04/13 01:59:47;;;;;;;2.78;2.22;;;10.50;99.90;;;;;;2074510;28;20022;-70
2023/04/13 02:00:53;;;;;;;2.40;2.20;;;10.50;99.90;;;;;;2076875;28;20095;-71
2023/04/13 02:01:54;;;;;;;2.35;2.00;;;10.50;99.90;;;;;;2081834;28;20102;-71
2023/04/13 02:02:55;;;;;;;2.40;2.10;;;10.50;99.90;;;;;;2083964;28;20021;-72
2023/04/13 02:03:56;;;;;;;3.75;2.45;;;10.50;99.90;;;;;;2073709;28;20040;-72
2023/04/13 02:04:59;;;;;;;4.65;2.40;;;10.40;99.90;;;;;;2074065;28;20029;-74
2023/04/13 02:06:02;;;;;;;2.78;2.20;;;10.40;99.90;;;;;;2073907;28;20472;-71
2023/04/13 02:07:03;;;;;;;3.75;2.20;;;10.40;99.90;;;;;;2082163;28;20164;-72
2023/04/13 02:08:09;;;;;;;2.40;2.20;;;10.40;99.90;;;;;;2081730;28;20044;-72
2023/04/13 02:09:14;;;;;;;2.78;2.05;;;10.40;99.90;;;;;;2079342;28;20256;-72
2023/04/13 02:10:15;;;;;;;2.22;2.03;;;10.30;99.90;;;;;;2073752;28;20040;-72
2023/04/13 02:11:18;;;;;;;2.17;1.90;;;10.30;99.90;;;;;;2076636;28;20345;-72
2023/04/13 02:12:19;;;;;;;3.10;2.13;;;10.30;99.90;;;;;;2081806;28;20048;-73
2023/04/13 02:13:19;;;;;;;2.40;2.20;;;10.30;99.90;;;;;;2081728;28;20659;-72
2023/04/13 02:14:20;;;;;;;3.10;2.40;;;10.30;99.90;;;;;;2079042;28;20091;-70
2023/04/13 02:15:21;;;;;;;2.83;2.20;;;10.20;99.90;;;;;;2065260;28;20101;-71
2023/04/13 02:16:22;;;;;;;2.70;2.40;;;10.30;99.90;;;;;;2073506;28;20049;-72
2023/04/13 02:17:24;;;;;;;2.95;2.30;;;10.20;99.90;;;;;;2082511;28;20021;-71
2023/04/13 02:18:25;;;;;;;4.28;2.40;;;10.20;99.90;;;;;;2084401;28;20114;-72
2023/04/13 02:19:25;;;;;;;2.60;2.40;;;10.20;99.90;;;;;;2082550;28;20515;-72
2023/04/13 02:20:29;;;;;;;3.55;2.50;;;10.20;99.90;;;;;;2082558;28;20311;-72
2023/04/13 02:21:33;;;;;;;2.83;2.40;;;10.20;99.90;;;;;;2081345;28;20180;-71
2023/04/13 02:22:34;;;;;;;2.58;2.30;;;10.20;99.90;;;;;;2073568;28;20526;-71
2023/04/13 02:23:36;;;;;;;2.75;2.55;;;10.20;99.90;;;;;;2081809;28;20033;-71
2023/04/13 02:24:37;;;;;;;3.38;2.45;;;10.20;99.90;;;;;;2081628;28;20029;-71
2023/04/13 02:25:37;;;;;;;2.50;2.30;;;10.20;99.90;;;;;;2074930;28;20487;-71
2023/04/13 02:26:39;;;;;;;3.58;2.20;;;10.20;99.90;;;;;;2090060;28;20113;-71
2023/04/13 02:27:40;;;;;;;3.53;2.25;;;10.20;99.90;;;;;;2090085;28;20594;-71
2023/04/13 02:28:41;;;;;;;4.63;2.17;;;10.20;99.90;;;;;;2081798;28;20029;-72
2023/04/13 02:29:42;;;;;;;2.70;2.30;;;10.20;99.90;;;;;;2083762;28;20115;-71
2023/04/13 02:30:43;;;;;;;2.47;2.28;;;10.20;99.90;;;;;;2080466;28;20849;-78
2023/04/13 02:31:44;;;;;;;2.88;2.30;;;10.20;99.90;;;;;;2090062;28;20127;-78
2023/04/13 02:32:48;;;;;;;2.50;2.20;;;10.20;99.90;;;;;;2082554;28;20121;-74
2023/04/13 02:33:50;;;;;;;2.60;2.40;;;10.20;99.90;;;;;;2083428;28;20052;-78
2023/04/13 02:34:52;;;;;;;3.63;2.33;;;10.20;99.90;;;;;;2065389;28;20033;-68
2023/04/13 02:35:53;;;;;;;2.40;2.13;;;10.20;99.90;;;;;;2073528;28;20068;-68
2023/04/13 02:36:54;;;;;;;3.08;2.40;;;10.20;99.90;;;;;;2081673;28;20024;-68
2023/04/13 02:37:55;;;;;;;2.35;2.15;;;10.20;99.90;;;;;;2081724;28;20039;-69
2023/04/13 02:38:56;;;;;;;2.20;2.00;;;10.20;99.90;;;;;;2075430;28;20017;-67
2023/04/13 02:40:02;;;;;;;2.10;2.00;;;10.10;99.90;;;;;;2075872;28;20029;-67
2023/04/13 02:41:02;;;;;;;2.40;2.20;;;10.10;99.90;;;;;;2089374;28;20070;-68
2023/04/13 02:42:04;;;;;;;2.20;2.00;;;10.10;99.90;;;;;;2081561;28;20610;-67
2023/04/13 02:43:05;;;;;;;2.40;2.20;;;10.10;99.90;;;;;;2073603;28;20423;-67
2023/04/13 02:44:10;;;;;;;2.10;1.90;;;10.10;99.90;;;;;;2079241;28;20036;-67
2023/04/13 02:45:20;;;;;;;2.15;1.95;;;10.10;99.90;;;;;;2081750;28;20055;-67
2023/04/13 02:46:23;;;;;;;2.20;2.00;;;10.00;99.90;;;;;;2081338;28;20067;-67
2023/04/13 02:47:29;;;;;;;2.78;2.00;;;10.00;99.90;;;;;;2074300;28;20548;-68
2023/04/13 02:48:31;;;;;;;2.10;1.90;;;10.00;99.90;;;;;;2083765;28;20036;-67
2023/04/13 02:49:32;;;;;;;2.08;1.88;;;10.00;99.90;;;;;;2081576;28;20032;-67
2023/04/13 02:50:47;;;;;;;2.00;1.90;;;10.00;99.90;;;;;;2079835;28;20665;-67
2023/04/13 02:51:53;;;;;;;2.08;1.90;;;10.00;99.90;;;;;;2075161;28;20228;-67
2023/04/13 02:53:03;;;;;;;2.20;2.00;;;10.00;99.90;;;;;;2073682;28;20030;-67
2023/04/13 02:54:03;;;;;;;2.13;2.00;;;10.00;99.90;;;;;;2073150;28;20813;-67
2023/04/13 02:55:09;;;;;;;1.85;1.75;;;10.00;99.90;;;;;;2075594;28;20038;-67
2023/04/13 02:56:34;;;;;;;2.13;1.90;;;10.00;99.90;;;;;;2079408;28;20402;-67
2023/04/13 02:57:35;;;;;;;2.13;1.92;;;10.00;99.90;;;;;;2081555;28;20033;-68
2023/04/13 02:58:38;;;;;;;2.17;1.98;;;9.90;99.90;;;;;;2073216;28;20049;-68
2023/04/13 02:59:45;;;;;;;2.50;2.30;;;9.90;99.90;;;;;;2074149;28;20140;-68
2023/04/13 03:00:47;;;;;;;2.90;2.40;;;9.90;99.90;;;;;;2073460;28;20539;-68
2023/04/13 03:01:49;;;;;;;2.50;2.30;;;9.90;99.90;;;;;;2073534;28;20065;-68
2023/04/13 03:02:53;;;;;;;2.58;2.38;;;9.90;99.90;;;;;;2075514;28;20028;-68
2023/04/13 03:03:55;;;;;;;2.65;2.40;;;9.90;99.90;;;;;;2073870;28;20057;-68
2023/04/13 03:04:59;;;;;;;2.60;2.40;;;9.90;99.90;;;;;;2073938;28;20033;-68
2023/04/13 03:06:02;;;;;;;2.40;2.13;;;9.90;99.90;;;;;;2081644;28;20029;-68
2023/04/13 03:07:18;;;;;;;2.90;2.20;;;9.90;99.90;;;;;;2075298;28;20061;-68
2023/04/13 03:08:23;;;;;;;2.60;2.20;;;9.90;99.90;;;;;;2073568;28;20061;-69
2023/04/13 03:09:35;;;;;;;2.35;1.90;;;9.90;99.90;;;;;;2075206;28;20041;-65
2023/04/13 03:10:38;;;;;;;2.35;2.03;;;9.90;99.90;;;;;;2077999;28;20036;-67
2023/04/13 03:11:39;;;;;;;2.70;2.20;;;9.90;99.90;;;;;;2081450;28;20083;-67
2023/04/13 03:12:45;;;;;;;2.70;2.28;;;9.90;99.90;;;;;;2073861;28;20466;-67
2023/04/13 03:13:46;;;;;;;5.90;2.20;;;9.90;99.90;;;;;;2081658;28;20033;-67
2023/04/13 03:14:50;;;;;;;2.08;1.95;;;9.90;99.90;;;;;;2075734;28;20135;-67
2023/04/13 03:15:54;;;;;;;1.90;1.80;;;9.90;99.90;;;;;;2078406;28;20017;-68
2023/04/13 03:16:57;;;;;;;2.30;2.10;;;9.80;99.90;;;;;;2075566;28;20064;-71
2023/04/13 03:18:02;;;;;;;3.63;2.50;;;9.80;99.90;;;;;;2067716;28;20500;-70
2023/04/13 03:19:04;;;;;;;2.92;2.25;;;9.80;99.90;;;;;;2066334;28;20084;-70
2023/04/13 03:20:15;;;;;;;2.33;2.10;;;9.80;99.90;;;;;;2075386;28;20018;-70
2023/04/13 03:21:24;;;;;;;3.03;2.30;;;9.80;99.90;;;;;;2072617;28;20032;-72
2023/04/13 03:22:36;;;;;;;3.40;2.50;;;9.80;99.90;;;;;;2074591;28;20026;-70
2023/04/13 03:23:37;;;;;;;3.05;2.20;;;9.80;99.90;;;;;;2081548;28;20499;-71
2023/04/13 03:24:42;;;;;;;2.38;2.17;;;9.80;99.90;;;;;;2081655;28;20344;-70
2023/04/13 03:25:45;;;;;;;2.53;2.00;;;9.80;99.90;;;;;;2081525;28;20036;-70
2023/04/13 03:26:46;;;;;;;2.25;2.00;;;9.80;99.90;;;;;;2081655;28;20025;-70
2023/04/13 03:27:52;;;;;;;2.17;1.95;;;9.80;99.90;;;;;;2075992;28;20040;-70
2023/04/13 03:28:55;;;;;;;3.28;1.80;;;9.70;99.90;;;;;;2075200;28;20427;-71
2023/04/13 03:29:57;;;;;;;2.97;1.85;;;9.70;99.90;;;;;;2081619;28;20052;-72
2023/04/13 03:30:57;;;;;;;2.28;1.63;;;9.70;99.90;;;;;;2089743;28;20527;-71
2023/04/13 03:31:58;;;;;;;3.03;1.70;;;9.70;99.90;;;;;;2081644;28;20053;-71
2023/04/13 03:33:01;;;;;;;2.50;1.90;;;9.70;99.90;;;;;;2083545;28;20032;-71
2023/04/13 03:34:05;;;;;;;6.20;1.85;;;9.70;99.90;;;;;;2078604;28;20053;-71
2023/04/13 03:35:07;;;;;;;2.85;1.70;;;9.70;99.90;;;;;;2073133;28;20095;-70
2023/04/13 03:36:09;;;;;;;2.67;1.67;;;9.70;99.90;;;;;;2073188;28;20021;-71
2023/04/13 03:37:11;;;;;;;2.28;1.30;;;9.70;99.90;;;;;;2079479;28;20431;-71
2023/04/13 03:38:12;;;;;;;1.40;1.30;;;9.70;99.90;;;;;;2064059;28;20084;-70
2023/04/13 03:39:17;;;;;;;3.40;1.45;;;9.70;99.90;;;;;;2067435;28;20050;-70
2023/04/13 03:40:17;;;;;;;2.55;1.40;;;9.70;99.90;;;;;;2074730;28;20248;-70
2023/04/13 03:41:24;;;;;;;2.08;1.40;;;9.70;99.90;;;;;;2082812;28;20351;-70
2023/04/13 03:42:25;;;;;;;1.85;1.50;;;9.70;99.90;;;;;;2082923;28;20099;-71
2023/04/13 03:43:30;;;;;;;1.85;1.30;;;9.70;99.90;;;;;;2075372;28;20107;-71
2023/04/13 03:44:49;;;;;;;1.95;1.30;;;9.70;99.90;;;;;;2081447;28;20400;-71
2023/04/13 03:45:50;;;;;;;1.65;1.30;;;9.70;99.90;;;;;;2080897;28;20021;-70
2023/04/13 03:46:52;;;;;;;1.40;1.30;;;9.70;99.90;;;;;;2084674;28;20112;-71
2023/04/13 03:47:58;;;;;;;2.08;1.30;;;9.70;99.90;;;;;;2084888;28;20044;-71
2023/04/13 03:49:00;;;;;;;1.88;1.30;;;9.70;99.90;;;;;;2082683;28;20045;-71
2023/04/13 03:50:02;;;;;;;3.28;1.38;;;9.70;99.90;;;;;;2082966;28;20199;-71
2023/04/13 03:51:07;;;;;;;1.23;1.13;;;9.70;99.90;;;;;;2082906;28;20363;-71
2023/04/13 03:52:19;;;;;;;1.98;1.25;;;9.70;99.90;;;;;;2076140;28;20037;-71
2023/04/13 03:53:27;;;;;;;1.70;1.40;;;9.70;99.90;;;;;;2075810;28;20022;-71
2023/04/13 03:54:29;;;;;;;2.83;1.20;;;9.70;99.90;;;;;;2075084;28;20056;-71
2023/04/13 03:55:32;;;;;;;1.38;1.10;;;9.60;99.90;;;;;;2083218;28;20021;-71
2023/04/13 03:56:39;;;;;;;3.15;1.30;;;9.60;99.90;;;;;;2092244;28;20017;-71
2023/04/13 03:57:42;;;;;;;1.38;1.27;;;9.60;99.90;;;;;;2080015;28;20033;-71
2023/04/13 03:58:48;;;;;;;1.55;1.33;;;9.60;99.90;;;;;;2082727;28;20032;-71
2023/04/13 03:59:54;;;;;;;1.15;1.10;;;9.60;99.90;;;;;;2082635;28;20035;-71
2023/04/13 04:01:03;;;;;;;1.20;1.10;;;9.60;99.90;;;;;;2085468;28;20124;-72
2023/04/13 04:02:17;;;;;;;1.30;1.20;;;9.60;99.90;;;;;;2080611;28;20039;-71
2023/04/13 04:03:21;;;;;;;1.25;1.15;;;9.60;99.90;;;;;;2082682;28;20510;-71
2023/04/13 04:04:28;;;;;;;2.17;1.25;;;9.60;99.90;;;;;;2075754;28;20067;-71
2023/04/13 04:05:30;;;;;;;1.63;1.40;;;9.60;99.90;;;;;;2074582;28;20244;-70
2023/04/13 04:06:35;;;;;;;1.92;1.20;;;9.60;99.90;;;;;;2072340;28;20026;-71
2023/04/13 04:07:44;;;;;;;1.40;1.30;;;9.60;99.90;;;;;;2083389;28;20029;-71
2023/04/13 04:08:48;;;;;;;1.58;1.20;;;9.50;99.90;;;;;;2082450;28;20128;-71
2023/04/13 04:10:00;;;;;;;2.67;1.27;;;9.60;99.90;;;;;;2077646;28;20029;-72
2023/04/13 04:11:01;;;;;;;2.25;1.20;;;9.60;99.90;;;;;;2082645;28;20025;-72
2023/04/13 04:12:04;;;;;;;1.48;1.20;;;9.60;99.90;;;;;;2084609;28;20113;-72
2023/04/13 04:13:14;;;;;;;1.30;1.10;;;9.60;99.90;;;;;;2081156;28;20025;-72
2023/04/13 04:14:20;;;;;;;1.48;1.20;;;9.60;99.90;;;;;;2084707;28;20336;-72
2023/04/13 04:15:27;;;;;;;1.25;1.15;;;9.60;99.90;;;;;;2080872;28;20548;-72
2023/04/13 04:16:33;;;;;;;1.92;1.10;;;9.60;99.90;;;;;;2071614;28;20041;-72
2023/04/13 04:17:41;;;;;;;1.42;1.20;;;9.60;99.90;;;;;;2075617;28;20034;-72
2023/04/13 04:18:42;;;;;;;2.60;1.35;;;9.60;99.90;;;;;;2082991;28;20405;-72
2023/04/13 04:19:46;;;;;;;2.25;1.35;;;9.60;99.90;;;;;;2074851;28;20453;-72
2023/04/13 04:20:49;;;;;;;3.90;1.80;;;9.60;99.90;;;;;;2076270;28;20820;-72
2023/04/13 04:21:51;;;;;;;2.28;1.70;;;9.60;99.90;;;;;;2082849;28;20032;-72
2023/04/13 04:22:54;;;;;;;1.80;1.55;;;9.60;99.90;;;;;;2073084;28;20490;-72
2023/04/13 04:23:56;;;;;;;2.35;1.40;;;9.60;99.90;;;;;;2082327;28;20033;-73
2023/04/13 04:24:58;;;;;;;1.85;1.38;;;9.60;99.90;;;;;;2082583;28;20481;-73
2023/04/13 04:26:01;;;;;;;1.50;1.27;;;9.60;99.90;;;;;;2074565;28;20039;-73
2023/04/13 04:27:07;;;;;;;1.27;1.10;;;9.60;99.90;;;;;;2075183;28;20408;-72
2023/04/13 04:28:07;;;;;;;1.55;1.15;;;9.60;99.90;;;;;;2084569;28;20033;-72
2023/04/13 04:29:12;;;;;;;1.27;1.17;;;9.60;99.90;;;;;;2082734;28;20028;-72
2023/04/13 04:30:13;;;;;;;2.65;1.15;;;9.60;99.90;;;;;;2087526;28;20029;-71
2023/04/13 04:31:13;;;;;;;1.77;1.20;;;9.60;99.90;;;;;;2083161;28;20051;-72
2023/04/13 04:32:22;;;;;;;2.17;1.13;;;9.60;99.90;;;;;;2082449;28;20436;-72
2023/04/13 04:33:23;;;;;;;2.88;1.30;;;9.60;99.90;;;;;;2082467;28;20100;-71
2023/04/13 04:34:25;;;;;;;2.50;1.25;;;9.60;99.90;;;;;;2082633;28;20017;-72
2023/04/13 04:35:32;;;;;;;2.15;1.45;;;9.60;99.90;;;;;;2075295;28;20056;-71
2023/04/13 04:36:32;;;;;;;1.83;1.33;;;9.60;99.90;;;;;;2073975;28;20033;-71
2023/04/13 04:37:36;;;;;;;2.00;1.50;;;9.60;99.90;;;;;;2080042;28;20705;-71
2023/04/13 04:38:41;;;;;;;1.90;1.50;;;9.60;99.90;;;;;;2074269;28;20449;-71
2023/04/13 04:39:43;;;;;;;2.45;1.58;;;9.60;99.90;;;;;;2074125;28;20128;-71
2023/04/13 04:40:45;;;;;;;1.50;1.40;;;9.60;99.90;;;;;;2077674;28;20504;-71
2023/04/13 04:41:53;;;;;;;1.92;1.50;;;9.50;99.90;;;;;;2084737;28;20417;-71
2023/04/13 04:42:54;;;;;;;1.50;1.40;;;9.50;99.90;;;;;;2076228;28;20041;-72
2023/04/13 04:44:16;;;;;;;2.15;1.50;;;9.50;99.90;;;;;;2068637;28;20496;-72
2023/04/13 04:45:19;;;;;;;1.73;1.60;;;9.50;99.90;;;;;;2076325;28;20022;-71
2023/04/13 04:46:26;;;;;;;1.90;1.70;;;9.50;99.90;;;;;;2074753;28;20025;-72
2023/04/13 04:47:29;;;;;;;2.60;2.00;;;9.50;99.90;;;;;;2074890;28;23133;-72
2023/04/13 04:48:41;;;;;;;2.22;1.88;;;9.50;99.90;;;;;;2081406;28;20036;-72
2023/04/13 04:49:42;;;;;;;2.00;1.80;;;9.50;99.90;;;;;;2076279;28;20520;-72
2023/04/13 04:50:44;;;;;;;2.33;1.90;;;9.40;99.90;;;;;;2084530;28;20151;-72
2023/04/13 04:51:48;;;;;;;2.97;2.00;;;9.40;99.90;;;;;;2082295;28;20040;-72
2023/04/13 04:52:49;;;;;;;2.00;1.77;;;9.40;99.90;;;;;;2075437;28;20026;-72
2023/04/13 04:53:56;;;;;;;3.08;1.80;;;9.40;99.90;;;;;;2072032;28;20113;-72
2023/04/13 04:54:58;;;;;;;1.70;1.60;;;9.40;99.90;;;;;;2066224;28;20444;-72
2023/04/13 04:56:01;;;;;;;3.15;1.90;;;9.40;99.90;;;;;;2073292;28;20309;-72
2023/04/13 04:57:20;;;;;;;2.30;2.10;;;9.40;99.90;;;;;;2074262;28;20179;-72
2023/04/13 04:58:22;;;;;;;2.75;2.25;;;9.40;99.90;;;;;;2082447;28;20396;-72
2023/04/13 04:59:26;;;;;;;2.40;2.20;;;9.40;99.90;;;;;;2082111;28;20055;-72
2023/04/13 05:00:31;;;;;;;3.65;2.20;;;9.40;99.90;;;;;;2081849;28;20029;-72
2023/04/13 05:01:37;;;;;;;4.25;2.17;;;9.40;99.90;;;;;;2079028;28;20104;-72
2023/04/13 05:02:43;;;;;;;2.55;2.15;;;9.40;99.90;;;;;;2072902;28;20253;-72
2023/04/13 05:03:45;;;;;;;2.20;2.00;;;9.40;99.90;;;;;;2073034;28;20025;-71
2023/04/13 05:04:56;;;;;;;2.30;1.83;;;9.40;99.90;;;;;;2070634;28;20038;-71
2023/04/13 05:05:57;;;;;;;3.55;2.00;;;9.40;99.90;;;;;;2082249;28;20035;-71
2023/04/13 05:07:03;;;;;;;2.28;1.52;;;9.40;99.90;;;;;;2082487;28;20434;-72
2023/04/13 05:08:10;;;;;;;3.10;1.55;;;9.40;99.90;;;;;;2084035;28;20144;-73
2023/04/13 05:09:17;;;;;;;3.47;1.50;;;9.50;99.90;;;;;;2070165;28;20627;-77
2023/04/13 05:10:27;;;;;;;3.67;1.67;;;9.50;99.90;;;;;;2066033;28;20520;-72
2023/04/13 05:11:31;;;;;;;2.67;1.60;;;9.50;99.90;;;;;;2074659;28;20393;-73
2023/04/13 05:12:33;;;;;;;4.28;1.77;;;9.50;99.90;;;;;;2080317;28;20067;-73
2023/04/13 05:13:35;;;;;;;2.53;2.20;;;9.50;99.90;;;;;;2084382;28;20025;-73
2023/04/13 05:14:47;;;;;;;3.17;2.10;;;9.50;99.90;;;;;;2083994;28;20057;-71
2023/04/13 05:15:47;;;;;;;3.95;1.90;;;9.60;99.90;;;;;;2084101;28;20640;-70
2023/04/13 05:16:52;;;;;;;2.90;1.75;;;9.60;99.90;;;;;;2076194;28;20033;-73
2023/04/13 05:17:58;;;;;;;2.00;1.80;;;9.60;99.90;;;;;;2082236;28;20028;-73
2023/04/13 05:19:04;;;;;;;2.17;1.70;;;9.70;99.90;;;;;;2082016;28;20148;-71
2023/04/13 05:20:19;;;;;;;2.55;1.60;;;9.70;99.90;;;;;;2075906;28;20029;-72
2023/04/13 05:21:29;;;;;;;1.75;1.60;;;9.70;99.90;;;;;;2085489;28;20037;-71
2023/04/13 05:22:33;;;;;;;2.40;1.60;;;9.70;99.90;;;;;;2078876;28;20747;-73
2023/04/13 05:23:38;;;;;;;4.07;1.90;;;9.80;99.90;;;;;;2076485;28;20400;-73
2023/04/13 05:24:41;;;;;;;3.03;2.10;;;9.80;99.90;;;;;;2075867;28;20045;-72
2023/04/13 05:25:45;;;;;;;4.57;2.08;;;9.80;99.90;;;;;;2074264;28;20092;-70
2023/04/13 05:26:55;;;;;;;3.75;1.95;;;9.80;99.90;;;;;;2074450;28;20187;-70
2023/04/13 05:27:56;;;;;;;2.17;1.63;;;9.80;99.90;;;;;;2084235;28;20075;-70
2023/04/13 05:28:59;;;;;;;2.70;1.65;;;9.80;99.90;;;;;;2086722;28;20071;-70
2023/04/13 05:30:05;;;;;;;2.55;1.60;;;9.80;99.90;;;;;;2082526;28;20476;-73
2023/04/13 05:31:09;;;;;;;2.53;1.95;;;9.80;99.90;;;;;;2082077;28;20079;-71
2023/04/13 05:32:12;;;;;;;2.85;1.98;;;9.70;99.90;;;;;;2074272;28;20088;-71
2023/04/13 05:33:13;;;;;;;4.10;1.80;;;9.70;99.90;;;;;;2073720;28;20063;-71
2023/04/13 05:34:15;;;;;;;2.50;1.90;;;9.70;99.90;;;;;;2078574;28;20044;-71
2023/04/13 05:35:26;;;;;;;4.05;1.95;;;9.70;99.90;;;;;;2071813;28;20330;-71
2023/04/13 05:36:28;;;;;;;4.82;1.70;;;9.70;99.90;;;;;;2081283;28;20021;-72